Time;durP1;ratioP1;P1;durP2;ratioP2;P2;SDS_P1;SDS_P2;PMS_P1;PMS_P2;Temp;Humidity;BMP_temperature;BMP_pressure;BME280_temperature;BME280_humidity;BME280_pressure;Samples;Min_cycle;Max_cycle;Signal;HPM_P1;HPM_P2
2023/04/06 00:00:48;;;;;;;3.53;2.28;;;;;;;3.40;92.12;101964.75;5058456;28;20029;-67
2023/04/06 00:03:14;;;;;;;3.42;2.25;;;;;;;3.43;92.15;101972.47;5040293;28;20029;-67
2023/04/06 00:05:39;;;;;;;3.50;2.03;;;;;;;3.45;91.09;101970.56;5058210;28;20025;-66
2023/04/06 00:08:05;;;;;;;2.10;1.90;;;;;;;3.37;90.72;101959.66;5023924;28;20516;-67
2023/04/06 00:10:31;;;;;;;3.85;2.10;;;;;;;3.29;91.24;101955.81;5039786;28;20417;-66
2023/04/06 00:12:58;;;;;;;3.10;2.00;;;;;;;3.34;91.68;101959.91;5057699;28;20090;-66
2023/04/06 00:15:23;;;;;;;5.55;2.17;;;;;;;3.35;90.59;101958.97;5057749;28;20033;-66
2023/04/06 00:17:49;;;;;;;4.32;2.42;;;;;;;3.15;92.44;101958.75;5039916;28;20097;-66
2023/04/06 00:20:15;;;;;;;4.55;2.40;;;;;;;3.16;92.34;101962.25;5050722;28;20044;-66
2023/04/06 00:22:41;;;;;;;2.78;2.20;;;;;;;3.05;92.50;101948.00;5062674;28;20025;-67
2023/04/06 00:25:06;;;;;;;4.22;2.00;;;;;;;3.00;92.93;101954.63;5059729;28;20314;-67
2023/04/06 00:27:32;;;;;;;3.55;2.40;;;;;;;3.05;92.41;101949.81;5040276;28;20033;-67
2023/04/06 00:29:57;;;;;;;3.42;2.05;;;;;;;3.09;92.10;101945.94;5058672;28;20033;-67
2023/04/06 00:32:22;;;;;;;4.85;2.28;;;;;;;3.12;91.19;101948.34;5041338;28;20054;-67
2023/04/06 00:34:48;;;;;;;4.38;2.30;;;;;;;3.10;91.04;101950.28;5040986;28;20086;-66
2023/04/06 00:37:13;;;;;;;3.45;2.15;;;;;;;3.08;90.43;101952.22;5040736;28;20028;-67
2023/04/06 00:39:39;;;;;;;2.60;1.90;;;;;;;3.15;90.00;101947.28;5057970;28;20036;-66
2023/04/06 00:42:12;;;;;;;3.22;2.00;;;;;;;2.76;90.58;101921.06;5058321;28;20032;-67
2023/04/06 00:44:38;;;;;;;4.90;2.30;;;;;;;2.90;90.72;101941.22;5058223;28;20013;-67
2023/04/06 00:47:04;;;;;;;3.67;2.10;;;;;;;2.90;91.19;101943.88;5056932;28;20116;-67
2023/04/06 00:49:29;;;;;;;5.40;2.42;;;;;;;2.71;91.16;101914.41;5039162;28;20036;-66
2023/04/06 00:51:55;;;;;;;5.40;2.13;;;;;;;2.73;91.18;101945.22;5039699;28;20039;-67
2023/04/06 00:54:20;;;;;;;3.00;2.17;;;;;;;2.55;92.32;101906.78;5022596;28;20032;-67
2023/04/06 00:56:45;;;;;;;3.75;2.10;;;;;;;2.85;91.11;101937.22;5038823;28;20171;-67
2023/04/06 00:59:12;;;;;;;4.10;1.92;;;;;;;2.69;90.98;101930.47;5039684;28;20029;-67
2023/04/06 01:01:37;;;;;;;3.88;2.30;;;;;;;2.60;92.16;101933.84;5053305;28;20029;-66
2023/04/06 01:04:03;;;;;;;2.80;1.85;;;;;;;2.69;90.80;101919.84;5031973;28;20037;-67
2023/04/06 01:06:29;;;;;;;2.92;1.77;;;;;;;2.94;90.20;101936.50;5059461;28;20020;-67
2023/04/06 01:08:54;;;;;;;4.15;2.40;;;;;;;3.01;88.79;101935.91;5061090;28;20124;-67
2023/04/06 01:11:20;;;;;;;3.15;2.20;;;;;;;2.87;89.46;101925.50;5033418;28;20055;-67
2023/04/06 01:13:46;;;;;;;2.63;1.88;;;;;;;2.85;89.48;101926.59;5048291;28;20036;-66
2023/04/06 01:16:12;;;;;;;3.95;2.20;;;;;;;2.75;89.55;101906.06;5068827;28;20037;-66
2023/04/06 01:18:38;;;;;;;4.20;2.05;;;;;;;2.82;89.54;101923.22;5041906;28;20028;-67
2023/04/06 01:21:03;;;;;;;3.95;2.20;;;;;;;2.80;89.33;101921.66;5038151;28;20048;-67
2023/04/06 01:23:29;;;;;;;2.60;2.00;;;;;;;2.83;89.75;101924.06;5039396;28;20037;-66
2023/04/06 01:25:54;;;;;;;3.67;2.08;;;;;;;2.73;89.87;101923.94;5022525;28;20484;-67
2023/04/06 01:28:20;;;;;;;3.67;2.03;;;;;;;2.91;88.42;101923.44;5057585;28;20041;-67
2023/04/06 01:30:46;;;;;;;5.75;2.00;;;;;;;2.69;89.46;101917.19;5039257;28;20025;-66
2023/04/06 01:33:11;;;;;;;3.38;2.08;;;;;;;2.70;88.87;101921.53;5057664;28;20394;-67
2023/04/06 01:35:37;;;;;;;4.32;2.10;;;;;;;2.67;88.95;101916.44;5056449;28;20032;-67
2023/04/06 01:38:02;;;;;;;3.40;2.13;;;;;;;2.72;88.90;101914.28;5059209;28;20032;-67
2023/04/06 01:40:27;;;;;;;4.95;2.08;;;;;;;2.62;88.12;101894.72;5045586;28;20488;-67
2023/04/06 01:42:53;;;;;;;3.55;2.15;;;;;;;2.66;87.77;101922.75;5039849;28;20064;-67
2023/04/06 01:45:18;;;;;;;3.17;2.00;;;;;;;2.74;87.08;101907.03;5055385;28;20087;-67
2023/04/06 01:47:43;;;;;;;3.95;2.00;;;;;;;2.82;86.72;101917.91;5059591;28;20036;-67
2023/04/06 01:50:09;;;;;;;3.85;2.00;;;;;;;2.74;86.41;101922.97;5061226;28;20037;-67
2023/04/06 01:52:34;;;;;;;3.55;2.05;;;;;;;2.72;86.38;101906.31;5043184;28;20025;-67
2023/04/06 01:55:00;;;;;;;3.58;1.90;;;;;;;2.79;85.44;101914.66;5026116;28;20522;-67
2023/04/06 01:57:25;;;;;;;2.58;1.85;;;;;;;2.81;85.19;101918.88;5008435;28;20033;-67
2023/04/06 01:59:51;;;;;;;3.33;2.03;;;;;;;2.80;84.90;101914.53;5041666;28;20036;-67
2023/04/06 02:02:16;;;;;;;3.10;1.75;;;;;;;2.82;84.75;101911.75;5040855;28;20080;-67
2023/04/06 02:04:42;;;;;;;7.60;1.73;;;;;;;2.81;84.45;101908.25;5062197;28;20506;-67
2023/04/06 02:07:07;;;;;;;5.03;1.98;;;;;;;2.71;84.48;101909.91;5042916;28;20033;-67
2023/04/06 02:09:33;;;;;;;3.42;1.88;;;;;;;2.54;85.50;101913.06;5042291;28;20090;-66
2023/04/06 02:11:58;;;;;;;2.72;1.80;;;;;;;2.63;85.22;101917.66;5060471;28;20017;-67
2023/04/06 02:14:25;;;;;;;1.98;1.77;;;;;;;2.69;84.86;101913.69;5042755;28;20047;-67
2023/04/06 02:16:51;;;;;;;3.42;1.80;;;;;;;2.66;nan;101906.78;5060252;28;20028;-67
2023/04/06 02:19:16;;;;;;;3.08;1.70;;;;;;;2.65;84.17;101913.09;5042113;28;20048;-66
2023/04/06 02:21:42;;;;;;;2.10;1.70;;;;;;;2.57;84.87;101916.31;5041946;28;20048;-67
2023/04/06 02:24:08;;;;;;;3.25;1.85;;;;;;;2.56;85.05;101913.81;5009568;28;20028;-67
2023/04/06 02:26:33;;;;;;;3.20;1.52;;;;;;;2.53;84.43;101908.72;5041664;28;20056;-67
2023/04/06 02:28:58;;;;;;;2.72;1.67;;;;;;;2.49;84.80;101913.44;5041638;28;20112;-66
2023/04/06 02:31:24;;;;;;;3.58;1.80;;;;;;;2.51;83.99;101905.31;5029439;28;20021;-66
2023/04/06 02:33:49;;;;;;;2.33;1.70;;;;;;;2.38;83.85;101905.44;5044412;28;20352;-67
2023/04/06 02:36:15;;;;;;;2.78;1.80;;;;;;;2.37;83.74;101902.91;5041008;28;20028;-67
2023/04/06 02:38:40;;;;;;;3.33;1.80;;;;;;;2.37;84.34;101905.56;5040524;28;20032;-67
2023/04/06 02:41:06;;;;;;;4.22;1.70;;;;;;;2.34;84.40;101903.97;5058687;28;20033;-67
2023/04/06 02:43:31;;;;;;;2.47;1.85;;;;;;;2.39;83.91;101907.16;5058904;28;20466;-67
2023/04/06 02:45:56;;;;;;;2.97;1.83;;;;;;;2.39;83.89;101904.50;5042548;28;20054;-66
2023/04/06 02:48:22;;;;;;;3.28;1.70;;;;;;;2.17;83.91;101878.72;5060306;28;20055;-67
2023/04/06 02:50:47;;;;;;;2.75;1.80;;;;;;;2.29;83.68;101907.00;5059511;28;20099;-67
2023/04/06 02:53:12;;;;;;;3.20;1.90;;;;;;;2.33;84.18;101908.47;5042468;28;20033;-67
2023/04/06 02:55:38;;;;;;;3.38;2.10;;;;;;;2.32;83.84;101909.44;5059591;28;20033;-67
2023/04/06 02:58:03;;;;;;;3.00;2.08;;;;;;;2.16;83.84;101879.72;5058093;28;20083;-67
2023/04/06 03:00:28;;;;;;;3.83;2.10;;;;;;;2.31;83.94;101912.19;5023281;28;20029;-66
2023/04/06 03:02:54;;;;;;;3.00;2.03;;;;;;;2.26;83.70;101898.44;5024214;28;20029;-67
2023/04/06 03:05:20;;;;;;;3.97;1.98;;;;;;;2.29;83.88;101904.34;5059190;28;20028;-66
2023/04/06 03:07:45;;;;;;;3.33;1.90;;;;;;;2.30;83.42;101908.69;5058972;28;20048;-67
2023/04/06 03:10:11;;;;;;;2.92;2.15;;;;;;;2.32;83.89;101903.28;5058779;28;20082;-66
2023/04/06 03:12:36;;;;;;;2.85;1.95;;;;;;;2.30;83.70;101913.16;5058779;28;20033;-66
2023/04/06 03:15:02;;;;;;;3.70;2.05;;;;;;;2.25;83.99;101899.38;5058625;28;20029;-66
2023/04/06 03:17:27;;;;;;;2.63;2.17;;;;;;;2.20;83.33;101898.91;5040268;28;20028;-66
2023/04/06 03:19:52;;;;;;;4.00;2.22;;;;;;;2.17;83.67;101892.00;5043194;28;20040;-67
2023/04/06 03:22:18;;;;;;;3.75;1.92;;;;;;;2.26;83.60;101917.03;5055528;28;20065;-66
2023/04/06 03:24:43;;;;;;;2.45;2.00;;;;;;;2.27;83.11;101913.38;5063823;28;20480;-67
2023/04/06 03:27:09;;;;;;;3.97;2.20;;;;;;;2.26;83.51;101912.56;5036456;28;20476;-66
2023/04/06 03:29:35;;;;;;;4.25;2.13;;;;;;;2.32;83.70;101920.06;5040094;28;20041;-66
2023/04/06 03:32:00;;;;;;;3.38;2.33;;;;;;;2.31;83.89;101918.34;5040379;28;20040;-66
2023/04/06 03:34:26;;;;;;;4.38;2.30;;;;;;;2.35;83.23;101921.59;5040083;28;20031;-66
2023/04/06 03:36:51;;;;;;;3.78;2.35;;;;;;;2.38;83.08;101924.03;5058954;28;20075;-66
2023/04/06 03:39:17;;;;;;;3.42;2.47;;;;;;;2.41;83.52;101929.09;5023525;28;20082;-67
2023/04/06 03:41:44;;;;;;;4.30;2.30;;;;;;;2.23;83.10;101902.16;5038209;28;20095;-67
2023/04/06 03:44:09;;;;;;;2.97;2.22;;;;;;;2.43;83.45;101926.34;5057855;28;20075;-66
2023/04/06 03:46:35;;;;;;;2.65;2.13;;;;;;;2.46;83.44;101924.28;5060152;28;20033;-67
2023/04/06 03:49:00;;;;;;;3.78;2.22;;;;;;;2.47;83.42;101933.09;5040794;28;20029;-66
2023/04/06 03:51:26;;;;;;;3.53;1.90;;;;;;;2.48;84.05;101922.34;5023716;28;20033;-66
2023/04/06 03:53:51;;;;;;;2.97;2.33;;;;;;;2.54;83.91;101926.34;5039147;28;20080;-67
2023/04/06 03:56:16;;;;;;;3.75;2.38;;;;;;;2.53;83.22;101933.47;5039221;28;20033;-66
2023/04/06 03:58:44;;;;;;;3.33;2.65;;;;;;;2.51;83.59;101937.22;5055921;28;20464;-66
2023/04/06 04:01:09;;;;;;;3.17;2.30;;;;;;;2.53;83.58;101929.97;5039510;28;20112;-66
2023/04/06 04:03:35;;;;;;;3.75;2.03;;;;;;;2.55;83.66;101933.34;5040147;28;20064;-66
2023/04/06 04:06:00;;;;;;;3.13;2.35;;;;;;;2.57;83.60;101931.44;5057810;28;20021;-67
2023/04/06 04:08:25;;;;;;;4.25;2.33;;;;;;;2.53;83.16;101924.66;5022850;28;20079;-67
2023/04/06 04:10:51;;;;;;;4.35;2.33;;;;;;;2.54;83.37;101926.34;5038549;28;20021;-66
2023/04/06 04:13:17;;;;;;;5.03;2.45;;;;;;;2.54;83.98;101923.69;5039465;28;20032;-66
2023/04/06 04:15:42;;;;;;;3.38;2.25;;;;;;;2.64;83.64;101931.78;5038845;28;20039;-66
2023/04/06 04:18:07;;;;;;;3.55;2.30;;;;;;;2.67;83.16;101931.56;5045212;28;20101;-66
2023/04/06 04:20:33;;;;;;;3.55;2.30;;;;;;;2.68;83.22;101931.44;5051139;28;20036;-66
2023/04/06 04:22:59;;;;;;;3.58;2.30;;;;;;;2.69;83.29;101932.28;5057786;28;20040;-65
2023/04/06 04:25:24;;;;;;;3.53;2.40;;;;;;;2.67;83.44;101937.72;5034564;28;20049;-66
2023/04/06 04:27:50;;;;;;;4.53;2.40;;;;;;;2.68;83.33;101923.47;5056583;28;20025;-65
2023/04/06 04:30:16;;;;;;;4.43;2.42;;;;;;;2.63;84.07;101933.59;5022285;28;20037;-66
2023/04/06 04:32:41;;;;;;;4.05;2.72;;;;;;;2.62;84.40;101931.94;5056370;28;20036;-66
2023/04/06 04:35:07;;;;;;;5.30;2.47;;;;;;;2.73;84.20;101923.09;5038595;28;20392;-66
2023/04/06 04:37:34;;;;;;;3.97;2.60;;;;;;;2.77;83.64;101927.22;5056516;28;20029;-66
2023/04/06 04:40:00;;;;;;;3.05;2.33;;;;;;;2.68;84.20;101920.81;5057194;28;20032;-66
2023/04/06 04:42:25;;;;;;;3.60;2.42;;;;;;;2.65;84.85;101929.03;5059435;28;20429;-66
2023/04/06 04:44:51;;;;;;;3.55;2.88;;;;;;;2.63;84.90;101936.25;5060257;28;20033;-66
2023/04/06 04:47:16;;;;;;;5.05;3.08;;;;;;;2.59;84.61;101932.16;5039482;28;20143;-66
2023/04/06 04:49:42;;;;;;;4.20;2.83;;;;;;;2.50;85.25;101914.28;5037953;28;20037;-66
2023/04/06 04:52:07;;;;;;;5.22;2.72;;;;;;;2.58;85.80;101930.44;5039722;28;20476;-66
2023/04/06 04:54:32;;;;;;;4.78;3.08;;;;;;;2.53;85.41;101930.81;5056695;28;20021;-65
2023/04/06 04:56:58;;;;;;;4.15;3.03;;;;;;;2.57;85.96;101929.59;5038869;28;20029;-66
2023/04/06 04:59:23;;;;;;;3.70;2.97;;;;;;;2.56;85.06;101905.81;5054882;28;20479;-65
2023/04/06 05:01:48;;;;;;;6.18;3.20;;;;;;;2.70;84.54;101940.13;5036933;28;20033;-65
2023/04/06 05:04:14;;;;;;;6.47;4.00;;;;;;;2.75;84.08;101940.63;5038560;28;20029;-66
2023/04/06 05:06:39;;;;;;;6.45;3.80;;;;;;;2.81;84.13;101940.16;5038534;28;20754;-66
2023/04/06 05:09:05;;;;;;;5.57;3.97;;;;;;;2.83;83.41;101948.00;5038732;28;20067;-66
2023/04/06 05:11:30;;;;;;;8.48;4.50;;;;;;;2.83;84.14;101938.19;5056003;28;20028;-66
2023/04/06 05:13:56;;;;;;;6.32;4.10;;;;;;;2.69;84.88;101938.44;5056835;28;20151;-66
2023/04/06 05:16:21;;;;;;;6.13;4.25;;;;;;;2.66;84.10;101913.94;5067283;28;20029;-66
2023/04/06 05:18:47;;;;;;;6.63;4.30;;;;;;;2.90;83.86;101940.38;5066800;28;20021;-66
2023/04/06 05:21:13;;;;;;;5.75;4.07;;;;;;;2.81;84.01;101939.28;5057296;28;20021;-66
2023/04/06 05:23:39;;;;;;;5.93;4.13;;;;;;;2.71;84.96;101933.84;5054437;28;20416;-66
2023/04/06 05:26:04;;;;;;;6.43;4.18;;;;;;;2.65;85.80;101936.13;5022744;28;20431;-66
2023/04/06 05:28:30;;;;;;;8.10;4.38;;;;;;;2.57;86.08;101910.16;5006457;28;20025;-65
2023/04/06 05:30:56;;;;;;;7.70;4.90;;;;;;;2.73;86.82;101941.72;5039076;28;20480;-65
2023/04/06 05:33:22;;;;;;;5.32;4.10;;;;;;;2.87;86.25;101930.00;5039383;28;20021;-65
2023/04/06 05:35:47;;;;;;;6.15;3.80;;;;;;;2.96;85.83;101913.31;5040637;28;20036;-65
2023/04/06 05:38:13;;;;;;;5.85;4.25;;;;;;;3.23;85.08;101945.66;5041373;28;20021;-66
2023/04/06 05:40:40;;;;;;;6.40;4.13;;;;;;;3.44;83.90;101952.88;5022961;28;20029;-65
2023/04/06 05:43:06;;;;;;;6.30;4.25;;;;;;;3.63;84.03;101944.25;5006943;28;20122;-66
2023/04/06 05:45:32;;;;;;;5.05;3.88;;;;;;;3.76;83.47;101945.78;5051430;28;20025;-66
2023/04/06 05:47:57;;;;;;;6.80;4.03;;;;;;;3.71;83.49;101942.66;5042910;28;20037;-65
2023/04/06 05:50:22;;;;;;;6.05;4.10;;;;;;;3.62;84.20;101938.09;5026182;28;20400;-65
2023/04/06 05:52:48;;;;;;;6.00;4.15;;;;;;;3.60;83.81;101920.53;5042104;28;20071;-66
2023/04/06 05:55:13;;;;;;;6.78;3.88;;;;;;;3.69;84.42;101941.94;5057759;28;20033;-66
2023/04/06 05:57:39;;;;;;;4.28;3.28;;;;;;;3.36;86.43;101945.53;5059434;28;20029;-66
2023/04/06 06:00:08;;;;;;;5.25;2.70;;;;;;;3.40;86.55;101940.78;5026310;28;20021;-66
2023/04/06 06:02:34;;;;;;;4.40;3.22;;;;;;;3.75;84.49;101956.56;5041810;28;20108;-65
2023/04/06 06:04:59;;;;;;;4.45;2.53;;;;;;;3.48;86.93;101952.53;5059686;28;20059;-66
2023/04/06 06:07:25;;;;;;;5.55;2.90;;;;;;;3.47;87.31;101937.50;5056069;28;20370;-66
2023/04/06 06:09:50;;;;;;;3.13;2.30;;;;;;;3.57;88.10;101955.38;5025005;28;20033;-66
2023/04/06 06:12:16;;;;;;;3.65;2.38;;;;;;;3.55;87.64;101960.00;4989217;28;20029;-65
2023/04/06 06:14:41;;;;;;;3.80;2.63;;;;;;;3.58;88.14;101951.78;5039891;28;20040;-65
2023/04/06 06:17:06;;;;;;;3.38;2.25;;;;;;;3.82;85.80;101930.28;5021240;28;20030;-65
2023/04/06 06:19:32;;;;;;;2.80;2.13;;;;;;;3.82;86.11;101951.56;5039046;28;20075;-65
2023/04/06 06:21:58;;;;;;;4.28;2.20;;;;;;;3.45;89.12;101941.28;5009491;28;20030;-65
2023/04/06 06:24:23;;;;;;;2.45;2.20;;;;;;;3.57;89.51;101939.41;5005085;28;20109;-65
2023/04/06 06:26:49;;;;;;;2.58;2.15;;;;;;;3.39;90.32;101931.13;5021271;28;20049;-66
2023/04/06 06:29:14;;;;;;;6.85;2.35;;;;;;;3.72;89.65;101952.31;5021322;28;20044;-65
2023/04/06 06:31:40;;;;;;;2.95;2.30;;;;;;;3.47;90.81;101929.53;5036660;28;20049;-65
2023/04/06 06:34:05;;;;;;;4.38;2.20;;;;;;;3.75;90.44;101945.91;5038952;28;20032;-67
2023/04/06 06:36:31;;;;;;;3.28;2.30;;;;;;;4.00;87.69;101948.19;5005116;28;20035;-65
2023/04/06 06:38:58;;;;;;;2.42;2.03;;;;;;;3.71;89.49;101950.66;5023032;28;20025;-65
2023/04/06 06:41:24;;;;;;;4.57;2.30;;;;;;;4.07;87.54;101953.03;5039191;28;20402;-65
2023/04/06 06:43:49;;;;;;;2.97;2.10;;;;;;;4.05;87.59;101936.34;5040513;28;20025;-65
2023/04/06 06:46:15;;;;;;;3.67;2.10;;;;;;;3.90;89.33;101947.28;5022049;28;20063;-64
2023/04/06 06:48:40;;;;;;;2.67;2.30;;;;;;;4.00;88.96;101956.19;5016340;28;20033;-65
2023/04/06 06:51:06;;;;;;;2.42;1.90;;;;;;;4.03;89.01;101959.59;5031017;28;20480;-64
2023/04/06 06:53:31;;;;;;;3.03;2.20;;;;;;;3.87;90.65;101958.19;5015432;28;20029;-65
2023/04/06 06:55:56;;;;;;;2.85;2.10;;;;;;;4.00;90.63;101958.00;5039522;28;20480;-64
2023/04/06 06:58:22;;;;;;;3.13;2.00;;;;;;;3.75;91.21;101954.72;5039176;28;20033;-65
2023/04/06 07:00:47;;;;;;;3.53;2.22;;;;;;;3.72;91.40;101941.69;5021713;28;20037;-65
2023/04/06 07:03:13;;;;;;;2.97;2.15;;;;;;;4.20;88.78;101951.03;5013044;28;20099;-65
2023/04/06 07:05:39;;;;;;;3.65;2.42;;;;;;;4.26;88.96;101960.31;5031106;28;20029;-65
2023/04/06 07:08:04;;;;;;;2.63;2.20;;;;;;;4.17;88.80;101952.16;5035071;28;20130;-66
2023/04/06 07:10:30;;;;;;;3.20;2.28;;;;;;;4.23;88.94;101962.25;5039643;28;20101;-65
2023/04/06 07:12:56;;;;;;;3.35;2.20;;;;;;;4.05;90.05;101955.81;5039478;28;20049;-65
2023/04/06 07:15:21;;;;;;;4.05;2.35;;;;;;;4.42;87.69;101963.38;5039863;28;20361;-66
2023/04/06 07:17:47;;;;;;;3.22;2.13;;;;;;;4.44;86.87;101959.63;5051089;28;20033;-66
2023/04/06 07:20:13;;;;;;;3.10;2.08;;;;;;;4.09;90.85;101967.91;5034093;28;20032;-65
2023/04/06 07:22:40;;;;;;;3.08;2.17;;;;;;;4.41;88.94;101959.03;5058204;28;20056;-66
2023/04/06 07:25:05;;;;;;;2.83;2.15;;;;;;;4.09;90.41;101943.94;5031033;28;20044;-66
2023/04/06 07:27:31;;;;;;;4.10;2.20;;;;;;;4.41;89.15;101965.19;5029365;28;20484;-66
2023/04/06 07:29:56;;;;;;;4.30;2.65;;;;;;;4.46;88.62;101946.16;5038549;28;20088;-66
2023/04/06 07:32:22;;;;;;;3.85;2.28;;;;;;;4.23;91.26;101966.75;5038171;28;20030;-66
2023/04/06 07:34:47;;;;;;;3.60;2.25;;;;;;;4.26;90.88;101971.81;5037794;28;20061;-65
2023/04/06 07:37:13;;;;;;;3.67;2.40;;;;;;;4.40;90.03;101973.31;4988023;28;20041;-65
2023/04/06 07:39:38;;;;;;;3.85;2.60;;;;;;;4.48;90.51;101973.53;5038441;28;20061;-65
2023/04/06 07:42:04;;;;;;;3.38;2.28;;;;;;;4.43;90.88;101967.72;5050788;28;20537;-66
2023/04/06 07:44:29;;;;;;;3.67;2.80;;;;;;;4.50;90.82;101968.03;5058348;28;20029;-67
2023/04/06 07:46:55;;;;;;;3.30;2.38;;;;;;;4.50;90.73;101974.22;5040672;28;20037;-65
2023/04/06 07:49:20;;;;;;;4.95;2.40;;;;;;;4.40;92.07;101975.97;5008139;28;20045;-67
2023/04/06 07:51:46;;;;;;;4.45;2.60;;;;;;;4.55;90.88;101961.34;5019799;28;20083;-67
2023/04/06 07:54:11;;;;;;;3.40;2.50;;;;;;;4.71;90.38;101959.06;5037918;28;20037;-66
2023/04/06 07:56:37;;;;;;;3.13;2.55;;;;;;;4.94;89.67;101972.22;5003845;28;20037;-67
2023/04/06 07:59:02;;;;;;;3.88;2.13;;;;;;;4.62;91.81;101970.50;5024831;28;20119;-68
2023/04/06 08:01:28;;;;;;;3.83;2.30;;;;;;;4.57;92.39;101970.06;5048392;28;20032;-67
2023/04/06 08:03:55;;;;;;;4.00;2.67;;;;;;;4.90;91.01;101977.00;5032116;28;20033;-67
2023/04/06 08:06:21;;;;;;;3.50;2.20;;;;;;;4.88;90.28;101972.75;5033016;28;20444;-67
2023/04/06 08:08:46;;;;;;;3.67;2.42;;;;;;;4.81;90.10;101959.13;5033118;28;20032;-67
2023/04/06 08:11:12;;;;;;;4.65;2.20;;;;;;;5.04;89.71;101980.28;5049633;28;20028;-67
2023/04/06 08:13:37;;;;;;;2.88;2.33;;;;;;;5.04;89.87;101975.78;5050751;28;20029;-67
2023/04/06 08:16:02;;;;;;;4.40;2.20;;;;;;;5.08;90.59;101977.19;5052069;28;20060;-67
2023/04/06 08:18:29;;;;;;;2.85;2.20;;;;;;;5.23;89.61;101979.47;5043609;28;20060;-67
2023/04/06 08:20:55;;;;;;;3.25;2.53;;;;;;;5.29;89.47;101984.28;5066945;28;20371;-67
2023/04/06 08:23:21;;;;;;;3.53;2.28;;;;;;;4.98;90.94;101976.31;5080170;28;20032;-67
2023/04/06 08:25:46;;;;;;;3.28;2.40;;;;;;;4.97;91.54;101985.31;5061028;28;20040;-67
2023/04/06 08:28:12;;;;;;;3.67;2.55;;;;;;;4.88;92.40;101986.94;5060757;28;20716;-67
2023/04/06 08:30:41;;;;;;;3.45;3.08;;;;;;;5.16;91.56;101990.69;5078864;28;20048;-67
2023/04/06 08:33:07;;;;;;;3.45;2.40;;;;;;;4.81;92.03;101987.59;5078817;28;20107;-67
2023/04/06 08:35:32;;;;;;;3.15;2.38;;;;;;;4.97;91.47;101987.09;5079150;28;20047;-67
2023/04/06 08:37:58;;;;;;;3.50;2.35;;;;;;;4.93;92.55;101986.53;5035295;28;20040;-66
2023/04/06 08:40:23;;;;;;;4.43;2.47;;;;;;;4.98;92.62;101997.66;5056246;28;20154;-67
2023/04/06 08:42:55;;;;;;;5.18;2.67;;;;;;;5.05;91.86;101979.28;5056003;28;20483;-67
2023/04/06 08:45:21;;;;;;;5.18;2.40;;;;;;;5.06;91.17;101971.13;5020375;28;20037;-67
2023/04/06 08:47:49;;;;;;;3.28;2.28;;;;;;;4.84;91.61;101952.69;5037096;28;20040;-67
2023/04/06 08:50:16;;;;;;;4.55;2.30;;;;;;;4.92;92.66;101993.69;5036936;28;20029;-68
2023/04/06 08:52:44;;;;;;;3.30;2.35;;;;;;;5.01;92.29;101993.88;5040018;28;20112;-67
2023/04/06 08:55:09;;;;;;;3.80;2.40;;;;;;;4.98;91.76;102000.31;5022609;28;20032;-67
2023/04/06 08:57:36;;;;;;;3.33;2.45;;;;;;;5.14;91.19;101992.66;5013663;28;20468;-66
2023/04/06 09:00:02;;;;;;;4.03;2.83;;;;;;;5.14;91.17;102005.16;5047596;28;20056;-67
2023/04/06 09:02:27;;;;;;;6.05;3.30;;;;;;;5.14;91.14;101997.16;5039585;28;20488;-67
2023/04/06 09:04:54;;;;;;;5.80;2.80;;;;;;;5.19;89.90;102002.91;5022825;28;20163;-67
2023/04/06 09:07:20;;;;;;;6.15;3.35;;;;;;;5.31;89.02;102001.00;5056761;28;20036;-67
2023/04/06 09:09:48;;;;;;;5.68;3.17;;;;;;;5.28;89.93;102006.63;5039718;28;20029;-67
2023/04/06 09:12:28;;;;;;;6.55;3.08;;;;;;;5.00;92.12;102011.72;5040393;28;20024;-67
2023/04/06 09:14:54;;;;;;;7.20;3.35;;;;;;;5.02;92.58;102008.91;5036108;28;20044;-67
2023/04/06 09:17:23;;;;;;;8.13;3.80;;;;;;;4.91;93.28;102016.00;5041314;28;20118;-67
2023/04/06 09:19:49;;;;;;;9.35;4.05;;;;;;;4.75;94.06;102020.13;5020161;28;20037;-68
2023/04/06 09:22:15;;;;;;;4.88;3.45;;;;;;;5.00;93.50;102006.38;5018748;28;20041;-67
2023/04/06 09:24:47;;;;;;;5.38;3.58;;;;;;;5.01;93.21;102018.72;5020908;28;20029;-67
2023/04/06 09:27:14;;;;;;;7.30;4.00;;;;;;;4.94;93.45;102004.22;5044270;28;20412;-67
2023/04/06 09:29:40;;;;;;;6.15;3.65;;;;;;;5.26;92.12;102016.56;5026821;28;20017;-67
2023/04/06 09:32:10;;;;;;;5.38;4.00;;;;;;;5.40;91.28;102010.88;5029998;28;20037;-67
2023/04/06 09:34:38;;;;;;;8.15;4.05;;;;;;;5.08;92.91;101995.88;5045661;28;20110;-67
2023/04/06 09:37:17;;;;;;;6.40;3.88;;;;;;;5.15;93.38;102020.19;5020939;28;20041;-67
2023/04/06 09:39:44;;;;;;;5.25;3.45;;;;;;;5.33;92.99;102025.72;5061408;28;20448;-67
2023/04/06 09:42:24;;;;;;;5.25;3.80;;;;;;;5.49;92.92;102015.38;5059898;28;20029;-68
2023/04/06 09:44:50;;;;;;;5.13;3.65;;;;;;;5.60;92.20;102019.78;5064567;28;20024;-68
2023/04/06 09:47:16;;;;;;;6.68;4.03;;;;;;;5.61;91.38;102024.97;5046443;28;20057;-68
2023/04/06 09:49:43;;;;;;;7.32;4.22;;;;;;;5.41;92.19;102015.22;5031008;28;20091;-68
2023/04/06 09:52:11;;;;;;;6.05;4.10;;;;;;;5.68;90.54;102019.09;5024657;28;20109;-68
2023/04/06 09:54:37;;;;;;;5.28;3.70;;;;;;;5.83;89.73;102020.41;5022495;28;20037;-69
2023/04/06 09:57:28;;;;;;;6.07;3.97;;;;;;;6.09;90.01;102018.03;5040049;28;20035;-68
2023/04/06 10:00:09;;;;;;;4.68;3.67;;;;;;;6.04;90.04;102014.97;5019608;28;20655;-68
2023/04/06 10:02:44;;;;;;;7.55;4.25;;;;;;;6.12;89.95;102012.44;5020938;28;20033;-68
2023/04/06 10:05:16;;;;;;;5.20;4.40;;;;;;;6.28;89.32;102007.34;5021234;28;20022;-68
2023/04/06 10:07:42;;;;;;;8.05;4.45;;;;;;;6.33;88.51;102018.47;5040470;28;20032;-68
2023/04/06 10:10:09;;;;;;;7.30;4.38;;;;;;;6.22;89.46;102015.94;5042624;28;20060;-68
2023/04/06 10:12:37;;;;;;;7.88;4.70;;;;;;;6.32;89.61;102010.59;5043632;28;20033;-68
2023/04/06 10:15:03;;;;;;;7.10;4.80;;;;;;;6.43;88.66;101982.88;5028487;28;20040;-68
2023/04/06 10:17:28;;;;;;;8.65;4.63;;;;;;;6.30;88.86;101953.78;5047297;28;20022;-68
2023/04/06 10:20:06;;;;;;;6.15;4.40;;;;;;;6.83;89.25;102015.59;5028541;28;20071;-67
2023/04/06 10:22:41;;;;;;;6.82;4.97;;;;;;;7.01;88.63;102010.31;5024584;28;20093;-68
2023/04/06 10:25:08;;;;;;;8.00;4.70;;;;;;;7.18;88.25;102015.88;5041067;28;20458;-68
2023/04/06 10:27:33;;;;;;;9.98;5.72;;;;;;;7.26;87.78;102010.66;5023621;28;20037;-67
2023/04/06 10:30:06;;;;;;;13.45;6.07;;;;;;;7.42;87.58;102010.88;5022402;28;20030;-66
2023/04/06 10:32:36;;;;;;;11.70;7.00;;;;;;;7.64;87.54;102006.06;5038041;28;20021;-66
2023/04/06 10:35:06;;;;;;;10.57;7.53;;;;;;;7.79;86.98;102004.56;5021292;28;20030;-67
2023/04/06 10:37:46;;;;;;;14.15;7.68;;;;;;;7.91;88.51;102008.72;5004605;28;20122;-69
2023/04/06 10:40:27;;;;;;;16.08;9.45;;;;;;;7.82;88.51;102006.13;5021299;28;20048;-68
2023/04/06 10:42:54;;;;;;;13.35;9.32;;;;;;;7.82;88.87;102001.59;5020832;28;20064;-67
2023/04/06 10:45:23;;;;;;;12.73;9.02;;;;;;;7.92;88.72;101997.00;5022091;28;20040;-67
2023/04/06 10:47:51;;;;;;;14.13;9.35;;;;;;;8.22;88.40;102016.38;5014948;28;20029;-67
2023/04/06 10:50:17;;;;;;;12.27;9.35;;;;;;;8.23;88.57;102001.97;5051349;28;20032;-67
2023/04/06 10:52:46;;;;;;;15.05;9.48;;;;;;;8.44;88.54;102005.22;5032953;28;20025;-69
2023/04/06 10:55:14;;;;;;;15.32;8.75;;;;;;;8.40;89.30;102002.97;5030747;28;20144;-67
2023/04/06 10:57:40;;;;;;;15.65;9.57;;;;;;;8.51;89.31;102007.25;5040193;28;20017;-66
2023/04/06 11:00:07;;;;;;;13.52;9.63;;;;;;;8.68;89.20;102009.06;5018792;28;20528;-67
2023/04/06 11:02:34;;;;;;;20.13;10.50;;;;;;;8.75;88.77;101999.41;5027680;28;20099;-67
2023/04/06 11:04:59;;;;;;;14.98;10.48;;;;;;;8.78;89.26;102017.03;5027977;28;20032;-67
2023/04/06 11:07:29;;;;;;;15.98;11.13;;;;;;;9.00;88.60;102003.06;5026061;28;20033;-66
2023/04/06 11:09:54;;;;;;;13.65;10.48;;;;;;;8.98;88.74;101991.66;5026584;28;20087;-66
2023/04/06 11:12:28;;;;;;;16.70;10.05;;;;;;;9.22;89.28;102022.31;5010590;28;20621;-66
2023/04/06 11:15:04;;;;;;;17.00;10.93;;;;;;;9.38;89.65;102020.53;5044593;28;20119;-66
2023/04/06 11:17:31;;;;;;;17.85;9.85;;;;;;;9.32;89.74;102015.81;5025653;28;20262;-66
2023/04/06 11:19:57;;;;;;;15.88;9.80;;;;;;;9.55;89.13;102008.00;5025389;28;20029;-66
2023/04/06 11:22:23;;;;;;;15.23;9.60;;;;;;;9.63;89.46;102013.44;4990630;28;20119;-66
2023/04/06 11:24:49;;;;;;;17.58;8.98;;;;;;;9.63;89.84;102018.81;5021517;28;20044;-66
2023/04/06 11:27:18;;;;;;;17.20;9.43;;;;;;;9.97;88.36;102019.72;5022188;28;20064;-67